createdAt,value
2022-10-14T00:02:06.796Z,14.60
2022-10-14T00:04:33.467Z,14.60
2022-10-14T00:07:00.087Z,14.60
2022-10-14T00:09:26.775Z,14.60
2022-10-14T00:11:53.394Z,14.60
2022-10-14T00:14:21.151Z,14.60
2022-10-14T00:16:52.055Z,14.60
2022-10-14T00:19:18.701Z,14.60
2022-10-14T00:21:46.088Z,14.70
2022-10-14T00:24:14.053Z,14.60
2022-10-14T00:26:41.256Z,14.60
2022-10-14T00:29:12.884Z,15.70
2022-10-14T00:31:39.679Z,14.60
2022-10-14T00:34:06.372Z,14.60
2022-10-14T00:36:33.059Z,14.60
2022-10-14T00:38:59.847Z,14.60
2022-10-14T00:41:31.612Z,14.60
2022-10-14T00:44:07.889Z,14.70
2022-10-14T00:46:37.715Z,14.60
2022-10-14T00:49:10.403Z,14.70
2022-10-14T00:51:38.490Z,14.70
2022-10-14T00:54:05.671Z,14.70
2022-10-14T00:56:33.316Z,14.70
2022-10-14T00:59:02.438Z,14.70
2022-10-14T01:01:29.084Z,14.70
2022-10-14T01:03:55.714Z,14.60
2022-10-14T01:06:48.614Z,14.60
2022-10-14T01:09:33.595Z,14.70
2022-10-14T01:12:29.394Z,14.70
2022-10-14T01:15:33.175Z,14.70
2022-10-14T01:18:08.751Z,14.70
2022-10-14T01:21:02.459Z,14.70
2022-10-14T01:24:02.618Z,14.70
2022-10-14T01:27:13.715Z,14.70
2022-10-14T01:30:02.641Z,14.70
2022-10-14T01:32:38.703Z,14.70
2022-10-14T01:35:10.073Z,14.70
2022-10-14T01:37:41.263Z,14.70
2022-10-14T01:40:13.825Z,14.70
2022-10-14T01:42:44.223Z,14.70
2022-10-14T01:45:19.976Z,14.70
2022-10-14T01:47:50.109Z,14.60
2022-10-14T01:50:20.040Z,14.60
2022-10-14T01:52:58.454Z,14.60
2022-10-14T01:55:30.403Z,14.60
2022-10-14T01:57:58.486Z,14.60
2022-10-14T02:00:25.259Z,14.70
2022-10-14T02:02:51.874Z,14.60
2022-10-14T02:05:32.081Z,14.60
2022-10-14T02:08:10.933Z,14.60
2022-10-14T02:10:49.552Z,14.60
2022-10-14T02:13:43.400Z,14.60
2022-10-14T02:16:18.006Z,14.60
2022-10-14T02:19:10.365Z,14.50
2022-10-14T02:21:48.150Z,14.50
2022-10-14T02:24:33.173Z,14.50
2022-10-14T02:27:04.775Z,14.50
2022-10-14T02:29:33.178Z,16.00
2022-10-14T02:32:02.060Z,14.50
2022-10-14T02:34:28.709Z,14.50
2022-10-14T02:36:56.335Z,14.50
2022-10-14T02:39:31.199Z,14.50
2022-10-14T02:41:58.119Z,14.50
2022-10-14T02:44:24.772Z,14.50
2022-10-14T02:46:51.373Z,14.50
2022-10-14T02:49:18.202Z,14.50
2022-10-14T02:51:44.904Z,14.50
2022-10-14T02:54:11.569Z,15.20
2022-10-14T02:56:38.213Z,14.40
2022-10-14T02:59:04.842Z,14.40
2022-10-14T03:01:35.135Z,14.40
2022-10-14T03:04:04.100Z,14.40
2022-10-14T03:06:30.745Z,14.50
2022-10-14T03:08:57.352Z,14.40
2022-10-14T03:11:23.979Z,14.40
2022-10-14T03:13:50.576Z,14.40
2022-10-14T03:16:17.247Z,14.40
2022-10-14T03:18:44.007Z,14.40
2022-10-14T03:21:10.963Z,14.40
2022-10-14T03:23:37.590Z,14.40
2022-10-14T03:26:04.480Z,14.40
2022-10-14T03:28:31.296Z,14.40
2022-10-14T03:30:57.958Z,14.40
2022-10-14T03:33:26.381Z,14.50
2022-10-14T03:35:53.458Z,14.50
2022-10-14T03:38:20.365Z,14.50
2022-10-14T03:40:46.998Z,14.40
2022-10-14T03:43:13.601Z,14.40
2022-10-14T03:45:40.278Z,14.40
2022-10-14T03:48:07.001Z,14.50
2022-10-14T03:50:33.697Z,14.50
2022-10-14T03:53:00.341Z,14.50
2022-10-14T03:55:27.220Z,14.50
2022-10-14T03:57:53.994Z,14.40
2022-10-14T04:00:20.807Z,14.50
2022-10-14T04:02:47.574Z,14.50
2022-10-14T04:05:14.528Z,14.40
2022-10-14T04:07:41.145Z,14.40
2022-10-14T04:10:08.342Z,14.40
2022-10-14T04:12:35.130Z,14.40
2022-10-14T04:15:01.887Z,14.40
2022-10-14T04:17:28.633Z,14.40
2022-10-14T04:19:55.269Z,14.50
2022-10-14T04:22:23.277Z,14.40
2022-10-14T04:24:50.350Z,14.50
2022-10-14T04:27:17.670Z,14.50
2022-10-14T04:29:44.582Z,14.50
2022-10-14T04:32:11.277Z,14.50
2022-10-14T04:34:38.016Z,14.50
2022-10-14T04:37:04.643Z,14.40
2022-10-14T04:39:31.248Z,14.40
2022-10-14T04:41:57.855Z,14.50
2022-10-14T04:44:24.510Z,14.50
2022-10-14T04:46:51.126Z,14.50
2022-10-14T04:49:17.780Z,14.50
2022-10-14T04:51:44.438Z,14.50
2022-10-14T04:54:11.333Z,14.50
2022-10-14T04:56:38.115Z,14.50
2022-10-14T04:59:05.840Z,14.50
2022-10-14T05:01:34.153Z,14.60
2022-10-14T05:04:00.906Z,14.50
2022-10-14T05:06:27.533Z,14.50
2022-10-14T05:08:54.116Z,14.60
2022-10-14T05:11:21.067Z,14.60
2022-10-14T05:13:47.778Z,14.60
2022-10-14T05:16:14.658Z,14.60
2022-10-14T05:18:41.408Z,14.60
2022-10-14T05:21:08.024Z,14.60
2022-10-14T05:23:34.663Z,14.50
2022-10-14T05:26:01.286Z,14.60
2022-10-14T05:28:27.984Z,14.50
2022-10-14T05:30:55.423Z,14.50
2022-10-14T05:33:22.223Z,14.60
2022-10-14T05:36:04.122Z,14.70
2022-10-14T05:38:34.218Z,14.70
2022-10-14T05:41:01.894Z,14.80
2022-10-14T05:43:32.476Z,14.80
2022-10-14T05:46:00.213Z,14.90
2022-10-14T05:48:26.918Z,14.90
2022-10-14T05:50:53.566Z,14.90
2022-10-14T05:53:20.241Z,15.00
2022-10-14T05:55:46.834Z,15.00
2022-10-14T05:58:13.435Z,15.00
2022-10-14T06:00:40.154Z,15.00
2022-10-14T06:03:06.828Z,14.90
2022-10-14T06:05:36.591Z,14.90
2022-10-14T06:08:03.513Z,14.90
2022-10-14T06:10:30.220Z,14.90
2022-10-14T06:12:57.198Z,14.70
2022-10-14T06:15:24.083Z,14.50
2022-10-14T06:17:50.686Z,14.50
2022-10-14T06:20:17.354Z,14.50
2022-10-14T06:22:44.051Z,14.40
2022-10-14T06:25:10.736Z,14.50
2022-10-14T06:27:37.455Z,14.40
2022-10-14T06:30:04.495Z,14.40
2022-10-14T06:32:31.407Z,14.50
2022-10-14T06:34:58.206Z,14.60
2022-10-14T06:37:24.848Z,14.50
2022-10-14T06:39:51.464Z,14.60
2022-10-14T06:42:18.084Z,14.50
2022-10-14T06:44:45.297Z,14.40
2022-10-14T06:47:12.041Z,14.40
2022-10-14T06:49:38.655Z,14.40
2022-10-14T06:52:05.318Z,14.50
2022-10-14T06:54:36.783Z,14.60
2022-10-14T06:57:06.206Z,14.70
2022-10-14T06:59:32.842Z,14.70
2022-10-14T07:01:59.526Z,14.40
2022-10-14T07:04:26.271Z,14.40
2022-10-14T07:06:52.960Z,14.30
2022-10-14T07:09:19.608Z,14.40
2022-10-14T07:11:46.223Z,14.40
2022-10-14T07:14:12.981Z,14.40
2022-10-14T07:16:39.694Z,14.40
2022-10-14T07:19:06.332Z,14.50
2022-10-14T07:21:32.940Z,14.60
2022-10-14T07:23:59.603Z,14.60
2022-10-14T07:26:26.334Z,14.60
2022-10-14T07:28:53.104Z,14.50
2022-10-14T07:31:19.729Z,14.60
2022-10-14T07:33:46.338Z,14.60
2022-10-14T07:36:18.576Z,14.80
2022-10-14T07:38:48.421Z,14.80
2022-10-14T07:41:21.227Z,14.70
2022-10-14T07:43:50.282Z,14.70
2022-10-14T07:46:28.446Z,14.80
2022-10-14T07:49:00.973Z,14.60
2022-10-14T07:51:28.404Z,14.60
2022-10-14T07:53:56.906Z,14.60
2022-10-14T07:56:24.158Z,14.50
2022-10-14T07:58:50.866Z,14.60
2022-10-14T08:01:18.867Z,14.70
2022-10-14T08:03:47.229Z,14.80
2022-10-14T08:06:14.656Z,14.70
2022-10-14T08:08:42.539Z,14.80
2022-10-14T08:11:23.511Z,14.70
2022-10-14T08:13:51.515Z,14.80
2022-10-14T08:16:26.690Z,14.70
2022-10-14T08:18:55.402Z,14.70
2022-10-14T08:21:22.503Z,14.80
2022-10-14T08:23:49.348Z,14.80
2022-10-14T08:26:19.003Z,14.90
2022-10-14T08:28:45.758Z,14.90
2022-10-14T08:31:12.369Z,15.00
2022-10-14T08:33:39.020Z,15.00
2022-10-14T08:36:05.901Z,14.90
2022-10-14T08:38:32.567Z,14.80
2022-10-14T08:41:14.671Z,14.80
2022-10-14T08:44:16.909Z,14.80
2022-10-14T08:46:56.240Z,14.90
2022-10-14T08:49:49.532Z,15.00
2022-10-14T08:52:21.070Z,15.00
2022-10-14T08:54:55.893Z,15.00
2022-10-14T08:57:27.226Z,15.10
2022-10-14T08:59:54.457Z,15.20
2022-10-14T09:02:38.029Z,15.20
2022-10-14T09:05:06.090Z,15.30
2022-10-14T09:07:35.427Z,15.40
2022-10-14T09:10:07.318Z,15.50
2022-10-14T09:12:35.807Z,15.40
2022-10-14T09:15:16.314Z,15.50
2022-10-14T09:17:57.030Z,15.30
2022-10-14T09:20:25.230Z,15.50
2022-10-14T09:23:16.879Z,15.60
2022-10-14T09:26:11.809Z,16.00
2022-10-14T09:28:41.061Z,16.00
2022-10-14T09:31:12.038Z,16.00
2022-10-14T09:33:42.311Z,16.10
2022-10-14T09:36:20.961Z,15.80
2022-10-14T09:38:52.684Z,15.70
2022-10-14T09:41:25.164Z,15.60
2022-10-14T09:44:21.141Z,15.60
2022-10-14T09:46:55.461Z,15.40
2022-10-14T09:49:33.991Z,15.40
2022-10-14T09:52:02.658Z,15.30
2022-10-14T09:54:31.071Z,15.40
2022-10-14T09:57:07.951Z,15.50
2022-10-14T09:59:49.089Z,15.40
2022-10-14T10:02:36.085Z,15.40
2022-10-14T10:05:13.798Z,14.30
2022-10-14T10:07:40.470Z,15.70
2022-10-14T10:10:21.963Z,15.80
2022-10-14T10:12:48.790Z,15.80
2022-10-14T10:15:21.392Z,15.80
2022-10-14T10:17:49.630Z,15.90
2022-10-14T10:20:19.237Z,15.70
2022-10-14T10:22:46.622Z,15.80
2022-10-14T10:25:13.803Z,15.60
2022-10-14T10:27:50.947Z,15.60
2022-10-14T10:30:17.843Z,14.80
2022-10-14T10:33:19.539Z,15.40
2022-10-14T10:35:57.867Z,15.60
2022-10-14T10:38:31.308Z,15.70
2022-10-14T10:41:25.638Z,15.70
2022-10-14T10:44:10.543Z,15.70
2022-10-14T10:46:54.998Z,15.60
2022-10-14T10:49:53.716Z,15.70
2022-10-14T10:52:35.111Z,15.90
2022-10-14T10:55:25.295Z,15.80
2022-10-14T10:58:19.887Z,15.90
2022-10-14T11:01:10.300Z,16.10
2022-10-14T11:04:06.131Z,16.00
2022-10-14T11:07:18.250Z,15.80
2022-10-14T11:10:39.057Z,15.70
2022-10-14T11:13:17.339Z,15.50
2022-10-14T11:16:07.454Z,15.60
2022-10-14T11:18:52.994Z,15.70
2022-10-14T11:21:43.759Z,15.90
2022-10-14T11:24:23.738Z,15.90
2022-10-14T11:27:15.380Z,15.80
2022-10-14T11:30:13.780Z,15.60
2022-10-14T11:33:02.024Z,15.50
2022-10-14T11:35:50.696Z,15.60
2022-10-14T11:38:54.270Z,15.50
2022-10-14T11:41:33.182Z,15.30
2022-10-14T11:44:14.306Z,15.40
2022-10-14T11:46:46.772Z,15.20
2022-10-14T11:49:29.841Z,15.30
2022-10-14T11:52:03.067Z,15.30
2022-10-14T11:54:44.850Z,15.30
2022-10-14T11:57:31.747Z,15.30
2022-10-14T12:00:24.501Z,15.50
2022-10-14T12:03:10.025Z,15.60
2022-10-14T12:05:55.436Z,15.70
2022-10-14T12:08:40.285Z,15.90
2022-10-14T12:11:14.409Z,15.90
2022-10-14T12:13:47.971Z,16.10
2022-10-14T12:16:18.323Z,16.10
2022-10-14T12:18:49.279Z,16.20
2022-10-14T12:21:35.625Z,16.30
2022-10-14T12:24:09.360Z,16.30
2022-10-14T12:26:49.644Z,16.40
2022-10-14T12:29:27.667Z,16.30
2022-10-14T12:32:03.532Z,16.20
2022-10-14T12:34:33.063Z,16.20
2022-10-14T12:36:59.773Z,16.20
2022-10-14T12:39:34.686Z,16.40
2022-10-14T12:42:09.835Z,16.50
2022-10-14T12:45:01.181Z,16.50
2022-10-14T12:47:36.347Z,16.60
2022-10-14T12:50:26.302Z,16.40
2022-10-14T12:53:08.332Z,16.40
2022-10-14T12:55:50.676Z,16.50
2022-10-14T12:58:42.354Z,16.30
2022-10-14T13:01:19.208Z,16.40
2022-10-14T13:03:54.421Z,16.30
2022-10-14T13:06:29.182Z,16.50
2022-10-14T13:09:16.908Z,16.60
2022-10-14T13:11:46.458Z,16.40
2022-10-14T13:14:35.381Z,16.00
2022-10-14T13:17:04.191Z,15.80
2022-10-14T13:19:33.854Z,15.70
2022-10-14T13:22:33.144Z,15.60
2022-10-14T13:25:16.826Z,15.40
2022-10-14T13:28:04.272Z,15.50
2022-10-14T13:30:58.594Z,15.90
2022-10-14T13:33:53.837Z,15.30
2022-10-14T13:36:53.823Z,15.30
2022-10-14T13:39:20.450Z,15.30
2022-10-14T13:41:47.913Z,15.30
2022-10-14T13:44:14.936Z,15.50
2022-10-14T13:46:44.134Z,15.60
2022-10-14T13:49:18.160Z,15.70
2022-10-14T13:51:50.808Z,15.80
2022-10-14T13:54:19.137Z,15.90
2022-10-14T13:57:19.828Z,15.90
2022-10-14T14:00:38.157Z,16.00
2022-10-14T14:02:35.451Z,16.00
2022-10-14T14:05:02.244Z,16.10
2022-10-14T14:08:30.048Z,16.20
2022-10-14T14:10:24.844Z,16.30
2022-10-14T14:12:52.265Z,16.40
2022-10-14T14:15:24.116Z,16.30
2022-10-14T14:17:50.955Z,16.20
2022-10-14T14:20:24.111Z,16.30
2022-10-14T14:22:51.215Z,16.40
2022-10-14T14:25:34.360Z,16.40
2022-10-14T14:28:05.675Z,16.50
2022-10-14T14:30:34.836Z,16.50
2022-10-14T14:33:13.333Z,16.50
2022-10-14T14:35:52.006Z,16.50
2022-10-14T14:38:36.944Z,16.40
2022-10-14T14:41:17.385Z,16.40
2022-10-14T14:43:50.121Z,16.40
2022-10-14T14:46:36.876Z,16.40
2022-10-14T14:49:05.246Z,16.50
2022-10-14T14:51:37.680Z,16.50
2022-10-14T14:54:05.839Z,16.40
2022-10-14T14:56:43.973Z,16.40
2022-10-14T14:59:35.438Z,16.40
2022-10-14T15:02:04.880Z,16.40
2022-10-14T15:04:34.895Z,16.40
2022-10-14T15:07:11.579Z,16.40
2022-10-14T15:09:42.801Z,17.40
2022-10-14T15:12:18.850Z,16.30
2022-10-14T15:14:47.527Z,16.40
2022-10-14T15:17:29.220Z,16.40
2022-10-14T15:19:58.119Z,16.30
2022-10-14T15:22:33.768Z,16.20
2022-10-14T15:25:02.264Z,16.20
2022-10-14T15:27:37.428Z,16.30
2022-10-14T15:30:17.369Z,16.20
2022-10-14T15:32:44.666Z,16.20
2022-10-14T15:35:16.420Z,16.30
2022-10-14T15:37:43.097Z,16.30
2022-10-14T15:40:13.006Z,16.30
2022-10-14T15:42:39.617Z,16.20
2022-10-14T15:45:06.977Z,16.20
2022-10-14T15:47:33.653Z,16.20
2022-10-14T15:50:00.411Z,16.20
2022-10-14T15:52:29.500Z,16.30
2022-10-14T15:54:58.248Z,16.20
2022-10-14T15:57:25.243Z,16.20
2022-10-14T15:59:53.205Z,16.20
2022-10-14T16:02:26.020Z,16.20
2022-10-14T16:05:18.803Z,16.20
2022-10-14T16:07:41.073Z,16.20
2022-10-14T16:10:11.040Z,16.20
2022-10-14T16:12:37.730Z,16.20
2022-10-14T16:15:34.894Z,16.20
2022-10-14T16:18:02.023Z,16.20
2022-10-14T16:20:30.739Z,16.10
2022-10-14T16:22:58.594Z,16.10
2022-10-14T16:25:43.945Z,16.10
2022-10-14T16:28:11.658Z,16.00
2022-10-14T16:30:40.654Z,16.00
2022-10-14T16:33:07.563Z,16.10
2022-10-14T16:35:34.230Z,16.00
2022-10-14T16:38:00.839Z,16.10
2022-10-14T16:40:27.513Z,16.10
2022-10-14T16:42:54.168Z,16.00
2022-10-14T16:45:20.771Z,16.00
2022-10-14T16:47:47.418Z,16.00
2022-10-14T16:50:14.011Z,16.10
2022-10-14T16:53:02.163Z,15.70
2022-10-14T16:55:31.902Z,16.10
2022-10-14T16:57:58.520Z,16.10
2022-10-14T17:00:25.583Z,16.10
2022-10-14T17:02:52.219Z,16.10
2022-10-14T17:05:18.823Z,16.10
2022-10-14T17:07:45.419Z,16.10
2022-10-14T17:10:12.151Z,16.00
2022-10-14T17:12:39.395Z,16.00
2022-10-14T17:15:06.768Z,16.00
2022-10-14T17:17:33.349Z,16.00
2022-10-14T17:19:59.960Z,16.00
2022-10-14T17:22:26.880Z,16.00
2022-10-14T17:24:54.847Z,16.00
2022-10-14T17:27:24.155Z,16.00
2022-10-14T17:29:50.962Z,16.00
2022-10-14T17:32:18.317Z,16.00
2022-10-14T17:34:44.999Z,16.10
2022-10-14T17:37:11.643Z,16.10
2022-10-14T17:39:38.494Z,16.10
2022-10-14T17:42:05.115Z,16.10
2022-10-14T17:44:32.670Z,16.10
2022-10-14T17:47:00.819Z,16.10
2022-10-14T17:49:27.648Z,16.10
2022-10-14T17:51:54.236Z,16.10
2022-10-14T17:54:20.969Z,16.10
2022-10-14T17:56:47.622Z,16.20
2022-10-14T17:59:14.385Z,16.70
2022-10-14T18:02:01.542Z,16.90
2022-10-14T18:04:27.806Z,17.20
2022-10-14T18:06:54.436Z,17.30
2022-10-14T18:09:21.228Z,17.40
2022-10-14T18:14:37.886Z,17.40
2022-10-14T18:17:05.241Z,17.50
2022-10-14T18:19:32.103Z,17.50
2022-10-14T18:21:58.718Z,17.50
2022-10-14T18:24:25.507Z,17.20
2022-10-14T18:26:53.257Z,16.90
2022-10-14T18:29:20.191Z,16.70
2022-10-14T18:31:49.192Z,16.40
2022-10-14T18:34:15.874Z,16.40
2022-10-14T18:36:42.664Z,16.30
2022-10-14T18:39:11.805Z,16.20
2022-10-14T18:41:38.445Z,16.10
2022-10-14T18:44:06.325Z,16.10
2022-10-14T18:46:35.680Z,16.10
2022-10-14T18:49:04.533Z,16.10
2022-10-14T18:51:34.977Z,15.90
2022-10-14T18:54:07.801Z,16.00
2022-10-14T18:56:38.809Z,16.00
2022-10-14T18:59:12.511Z,16.00
2022-10-14T19:01:39.899Z,16.00
2022-10-14T19:04:08.578Z,15.70
2022-10-14T19:06:35.735Z,15.90
2022-10-14T19:09:03.033Z,15.90
2022-10-14T19:11:30.611Z,15.90
2022-10-14T19:13:58.730Z,15.90
2022-10-14T19:16:26.726Z,15.80
2022-10-14T19:19:04.548Z,15.80
2022-10-14T19:21:32.083Z,15.80
2022-10-14T19:24:00.289Z,15.70
2022-10-14T19:26:32.767Z,15.70
2022-10-14T19:29:01.318Z,15.70
2022-10-14T19:31:31.064Z,15.60
2022-10-14T19:34:01.206Z,15.60
2022-10-14T19:36:28.261Z,15.60
2022-10-14T19:38:59.964Z,15.60
2022-10-14T19:41:28.936Z,15.50
2022-10-14T19:43:57.842Z,14.40
2022-10-14T19:46:29.595Z,15.50
2022-10-14T19:49:02.261Z,15.50
2022-10-14T19:51:29.355Z,15.50
2022-10-14T19:53:56.627Z,15.50
2022-10-14T19:56:24.763Z,15.50
2022-10-14T19:58:53.751Z,15.50
2022-10-14T20:01:23.679Z,15.50
2022-10-14T20:03:50.560Z,15.50
2022-10-14T20:06:17.474Z,15.40
2022-10-14T20:08:45.296Z,15.50
2022-10-14T20:11:17.162Z,15.40
2022-10-14T20:13:44.615Z,15.50
2022-10-14T20:16:12.063Z,15.40
2022-10-14T20:18:38.841Z,15.40
2022-10-14T20:21:07.382Z,15.50
2022-10-14T20:23:39.757Z,15.50
2022-10-14T20:26:11.215Z,15.50
2022-10-14T20:28:38.815Z,15.50
2022-10-14T20:31:17.666Z,15.50
2022-10-14T20:33:44.578Z,15.50
2022-10-14T20:36:17.798Z,15.50
2022-10-14T20:38:44.678Z,15.50
2022-10-14T20:41:24.918Z,15.40
2022-10-14T20:43:53.710Z,15.50
2022-10-14T20:46:21.752Z,15.50
2022-10-14T20:48:48.447Z,15.50
2022-10-14T20:51:17.822Z,15.40
2022-10-14T20:53:44.444Z,15.40
2022-10-14T20:56:13.308Z,15.40
2022-10-14T20:58:40.418Z,15.40
2022-10-14T21:01:13.741Z,15.40
2022-10-14T21:03:41.747Z,15.40
2022-10-14T21:06:11.074Z,15.40
2022-10-14T21:08:38.237Z,15.40
2022-10-14T21:11:10.559Z,15.40
2022-10-14T21:13:42.780Z,15.40
2022-10-14T21:16:14.034Z,15.40
2022-10-14T21:18:40.745Z,15.40
2022-10-14T21:21:08.076Z,15.40
2022-10-14T21:23:36.153Z,15.40
2022-10-14T21:26:02.768Z,15.40
2022-10-14T21:28:29.561Z,15.40
2022-10-14T21:30:56.187Z,15.40
2022-10-14T21:33:22.843Z,15.40
2022-10-14T21:35:49.472Z,15.40
2022-10-14T21:38:16.114Z,15.40
2022-10-14T21:40:42.724Z,15.40
2022-10-14T21:43:09.382Z,15.40
2022-10-14T21:45:35.955Z,15.40
2022-10-14T21:48:02.575Z,15.40
2022-10-14T21:50:29.198Z,15.40
2022-10-14T21:52:55.851Z,15.40
2022-10-14T21:55:22.462Z,15.40
2022-10-14T21:57:51.418Z,15.40
2022-10-14T22:00:18.289Z,15.40
2022-10-14T22:02:44.917Z,15.40
2022-10-14T22:05:11.579Z,15.40
2022-10-14T22:07:38.170Z,15.40
2022-10-14T22:10:25.092Z,15.40
2022-10-14T22:12:51.669Z,15.40
2022-10-14T22:15:18.439Z,15.40
2022-10-14T22:17:45.041Z,15.40
2022-10-14T22:20:11.767Z,15.40
2022-10-14T22:22:38.352Z,15.40
2022-10-14T22:25:05.424Z,15.40
2022-10-14T22:27:32.027Z,15.40
2022-10-14T22:29:59.440Z,15.40
2022-10-14T22:32:26.091Z,15.40
2022-10-14T22:34:52.686Z,15.40
2022-10-14T22:37:20.052Z,15.40
2022-10-14T22:39:46.937Z,15.40
2022-10-14T22:42:13.510Z,15.50
2022-10-14T22:44:40.094Z,15.40
2022-10-14T22:47:06.708Z,15.50
2022-10-14T22:49:33.358Z,15.50
2022-10-14T22:51:59.931Z,15.50
2022-10-14T22:54:26.934Z,15.50
2022-10-14T22:56:53.737Z,15.50
2022-10-14T22:59:20.337Z,17.20
2022-10-14T23:01:46.916Z,15.40
2022-10-14T23:04:13.618Z,15.40
2022-10-14T23:06:43.568Z,15.50
2022-10-14T23:09:10.326Z,15.50
2022-10-14T23:11:36.924Z,15.50
2022-10-14T23:14:07.175Z,15.50
2022-10-14T23:16:34.539Z,15.50
2022-10-14T23:19:01.151Z,15.60
2022-10-14T23:21:30.103Z,15.60
2022-10-14T23:23:59.186Z,15.60
2022-10-14T23:26:28.773Z,15.60
2022-10-14T23:28:57.618Z,15.60
2022-10-14T23:31:27.795Z,15.60
2022-10-14T23:33:55.023Z,15.60
2022-10-14T23:36:22.311Z,15.60
2022-10-14T23:38:49.810Z,15.60
2022-10-14T23:41:16.442Z,15.60
2022-10-14T23:43:43.250Z,15.60
2022-10-14T23:46:09.934Z,15.60
2022-10-14T23:48:37.029Z,15.60
2022-10-14T23:51:04.236Z,15.70
2022-10-14T23:53:30.996Z,15.70
2022-10-14T23:55:58.095Z,15.70
2022-10-14T23:58:28.369Z,15.70
